createdAt,value
2019-03-16T00:02:15.074Z,99132.05
2019-03-16T00:04:44.576Z,99130.92
2019-03-16T00:07:13.995Z,99135.20
2019-03-16T00:09:43.358Z,99135.66
2019-03-16T00:12:12.892Z,99137.80
2019-03-16T00:14:42.344Z,99139.94
2019-03-16T00:17:22.927Z,99140.97
2019-03-16T00:19:42.958Z,99140.23
2019-03-16T00:22:12.441Z,99137.09
2019-03-16T00:24:41.786Z,99142.38
2019-03-16T00:27:11.133Z,99146.20
2019-03-16T00:29:40.607Z,99145.24
2019-03-16T00:32:13.652Z,99149.14
2019-03-16T00:34:41.187Z,99146.08
2019-03-16T00:37:10.514Z,99156.78
2019-03-16T00:39:39.909Z,99152.50
2019-03-16T00:42:09.425Z,99165.42
2019-03-16T00:44:38.895Z,99158.52
2019-03-16T00:47:08.358Z,99155.00
2019-03-16T00:49:37.758Z,99154.45
2019-03-16T00:52:07.088Z,99157.41
2019-03-16T00:54:36.522Z,99162.91
2019-03-16T00:57:05.940Z,99155.10
2019-03-16T00:59:36.407Z,99148.98
2019-03-16T01:02:05.730Z,99156.33
2019-03-16T01:04:35.142Z,99160.61
2019-03-16T01:07:04.498Z,99165.05
2019-03-16T01:09:33.857Z,99162.72
2019-03-16T01:12:03.457Z,99161.42
2019-03-16T01:14:32.860Z,99160.39
2019-03-16T01:17:02.237Z,99164.67
2019-03-16T01:19:31.585Z,99162.15
2019-03-16T01:22:00.992Z,99165.21
2019-03-16T01:24:30.446Z,99162.34
2019-03-16T01:27:00.058Z,99160.58
2019-03-16T01:29:29.505Z,99162.72
2019-03-16T01:31:58.854Z,99159.55
2019-03-16T01:34:28.208Z,99161.69
2019-03-16T01:36:57.617Z,99166.16
2019-03-16T01:39:27.033Z,99163.10
2019-03-16T01:41:56.436Z,99166.51
2019-03-16T01:44:25.791Z,99167.81
2019-03-16T01:46:55.271Z,99166.89
2019-03-16T01:49:24.640Z,99168.65
2019-03-16T01:51:54.019Z,99169.23
2019-03-16T01:54:23.470Z,99171.06
2019-03-16T01:56:52.849Z,99173.20
2019-03-16T01:59:22.188Z,99175.12
2019-03-16T02:01:51.534Z,99180.49
2019-03-16T02:04:21.020Z,99183.52
2019-03-16T02:06:50.416Z,99172.93
2019-03-16T02:09:19.749Z,99176.48
2019-03-16T02:11:49.399Z,99189.56
2019-03-16T02:14:18.991Z,99198.02
2019-03-16T02:16:48.326Z,99190.38
2019-03-16T02:19:17.660Z,99185.25
2019-03-16T02:21:47.158Z,99193.66
2019-03-16T02:24:16.548Z,99194.23
2019-03-16T02:26:45.931Z,99198.05
2019-03-16T02:29:15.312Z,99202.17
2019-03-16T02:31:44.816Z,99202.68
2019-03-16T02:34:14.237Z,99203.75
2019-03-16T02:36:51.879Z,99204.48
2019-03-16T02:39:21.315Z,99209.86
2019-03-16T02:41:50.746Z,99209.17
2019-03-16T02:44:20.167Z,99202.06
2019-03-16T02:46:49.522Z,99207.84
2019-03-16T02:49:18.881Z,99206.46
2019-03-16T02:51:48.224Z,99209.86
2019-03-16T02:54:17.614Z,99206.77
2019-03-16T02:56:46.989Z,99212.98
2019-03-16T02:59:16.357Z,99207.55
2019-03-16T03:01:45.697Z,99202.02
2019-03-16T03:04:15.044Z,99204.23
2019-03-16T03:06:44.420Z,99212.42
2019-03-16T03:09:13.900Z,99212.50
2019-03-16T03:11:43.299Z,99215.47
2019-03-16T03:14:12.669Z,99219.45
2019-03-16T03:16:42.127Z,99212.95
2019-03-16T03:19:11.500Z,99217.43
2019-03-16T03:21:40.921Z,99213.15
2019-03-16T03:24:10.383Z,99209.78
2019-03-16T03:26:39.747Z,99219.00
2019-03-16T03:29:09.349Z,99219.27
2019-03-16T03:31:38.791Z,99225.08
2019-03-16T03:34:08.291Z,99218.05
2019-03-16T03:36:37.767Z,99223.32
2019-03-16T03:39:08.211Z,99231.84
2019-03-16T03:41:37.771Z,99230.55
2019-03-16T03:44:07.191Z,99231.12
2019-03-16T03:46:36.556Z,99232.23
2019-03-16T03:49:05.966Z,99231.50
2019-03-16T03:51:35.350Z,99235.75
2019-03-16T03:54:04.763Z,99233.33
2019-03-16T03:56:34.158Z,99237.54
2019-03-16T03:59:03.482Z,99236.97
2019-03-16T04:01:32.953Z,99241.94
2019-03-16T04:04:15.272Z,99236.63
2019-03-16T04:06:33.466Z,99245.73
2019-03-16T04:09:04.062Z,99233.67
2019-03-16T04:11:33.453Z,99239.34
2019-03-16T04:14:02.941Z,99240.91
2019-03-16T04:16:32.385Z,99237.09
2019-03-16T04:19:01.829Z,99240.18
2019-03-16T04:21:31.134Z,99242.94
2019-03-16T04:24:00.484Z,99238.27
2019-03-16T04:26:29.890Z,99242.89
2019-03-16T04:28:59.255Z,99240.91
2019-03-16T04:31:28.799Z,99245.98
2019-03-16T04:33:58.138Z,99252.94
2019-03-16T04:36:27.513Z,99252.44
2019-03-16T04:38:57.020Z,99254.27
2019-03-16T04:41:26.410Z,99253.08
2019-03-16T04:43:55.755Z,99251.02
2019-03-16T04:46:25.113Z,99258.81
2019-03-16T04:48:54.500Z,99261.56
2019-03-16T04:51:23.969Z,99259.42
2019-03-16T04:53:53.319Z,99265.00
2019-03-16T04:56:22.907Z,99261.02
2019-03-16T04:58:52.344Z,99266.60
2019-03-16T05:01:21.684Z,99267.98
2019-03-16T05:03:51.076Z,99269.35
2019-03-16T05:06:20.555Z,99274.16
2019-03-16T05:08:50.078Z,99266.55
2019-03-16T05:11:19.452Z,99277.86
2019-03-16T05:13:48.840Z,99277.41
2019-03-16T05:16:18.352Z,99278.39
2019-03-16T05:18:47.752Z,99280.53
2019-03-16T05:21:17.124Z,99283.59
2019-03-16T05:23:46.538Z,99284.50
2019-03-16T05:26:15.939Z,99294.63
2019-03-16T05:28:45.292Z,99283.92
2019-03-16T05:31:14.700Z,99284.91
2019-03-16T05:33:44.094Z,99290.03
2019-03-16T05:36:13.437Z,99283.98
2019-03-16T05:38:42.806Z,99288.73
2019-03-16T05:41:12.211Z,99287.43
2019-03-16T05:43:41.553Z,99294.23
2019-03-16T05:46:11.037Z,99294.31
2019-03-16T05:48:40.537Z,99290.48
2019-03-16T05:51:09.906Z,99295.61
2019-03-16T05:53:39.437Z,99291.25
2019-03-16T05:56:08.899Z,99296.20
2019-03-16T05:58:38.321Z,99285.67
2019-03-16T06:01:07.928Z,99291.71
2019-03-16T06:03:37.348Z,99286.44
2019-03-16T06:06:06.790Z,99290.87
2019-03-16T06:08:36.330Z,99292.86
2019-03-16T06:11:06.692Z,99293.25
2019-03-16T06:13:36.091Z,99295.73
2019-03-16T06:16:05.459Z,99295.66
2019-03-16T06:18:34.810Z,99301.31
2019-03-16T06:21:04.237Z,99297.59
2019-03-16T06:23:33.610Z,99302.87
2019-03-16T06:26:02.964Z,99307.61
2019-03-16T06:28:32.391Z,99308.37
2019-03-16T06:31:01.784Z,99308.06
2019-03-16T06:33:31.121Z,99312.55
2019-03-16T06:36:00.468Z,99314.44
2019-03-16T06:38:29.905Z,99317.88
2019-03-16T06:40:59.244Z,99316.30
2019-03-16T06:43:28.682Z,99325.47
2019-03-16T06:45:58.097Z,99323.47
2019-03-16T06:48:27.443Z,99325.02
2019-03-16T06:50:56.844Z,99320.48
2019-03-16T06:53:26.255Z,99325.07
2019-03-16T06:55:57.045Z,99322.14
2019-03-16T06:58:26.365Z,99322.98
2019-03-16T07:00:57.742Z,99329.80
2019-03-16T07:03:27.182Z,99330.07
2019-03-16T07:05:56.526Z,99330.58
2019-03-16T07:08:25.934Z,99331.73
2019-03-16T07:10:55.436Z,99331.66
2019-03-16T07:13:24.940Z,99332.31
2019-03-16T07:15:54.319Z,99335.07
2019-03-16T07:18:23.689Z,99331.11
2019-03-16T07:20:53.037Z,99343.20
2019-03-16T07:23:22.512Z,99343.58
2019-03-16T07:25:52.101Z,99346.11
2019-03-16T07:28:21.552Z,99348.88
2019-03-16T07:30:50.978Z,99345.28
2019-03-16T07:33:20.399Z,99354.20
2019-03-16T07:35:49.851Z,99349.21
2019-03-16T07:38:19.245Z,99353.31
2019-03-16T07:40:48.620Z,99357.37
2019-03-16T07:43:17.968Z,99354.30
2019-03-16T07:45:49.741Z,99358.66
2019-03-16T07:48:19.115Z,99364.14
2019-03-16T07:50:50.281Z,99358.41
2019-03-16T07:53:19.803Z,99369.00
2019-03-16T07:55:49.214Z,99369.53
2019-03-16T07:58:18.612Z,99377.39
2019-03-16T08:00:47.969Z,99370.20
2019-03-16T08:03:17.412Z,99371.50
2019-03-16T08:05:46.783Z,99372.88
2019-03-16T08:08:16.273Z,99371.38
2019-03-16T08:10:45.752Z,99373.98
2019-03-16T08:13:15.194Z,99371.98
2019-03-16T08:15:44.665Z,99370.23
2019-03-16T08:18:14.028Z,99381.66
2019-03-16T08:20:43.421Z,99382.02
2019-03-16T08:23:12.927Z,99374.13
2019-03-16T08:25:42.310Z,99382.24
2019-03-16T08:28:12.520Z,99377.50
2019-03-16T08:30:41.876Z,99381.55
2019-03-16T08:33:11.341Z,99376.61
2019-03-16T08:35:40.736Z,99377.38
2019-03-16T08:38:10.122Z,99381.86
2019-03-16T08:40:39.625Z,99384.50
2019-03-16T08:43:09.133Z,99382.20
2019-03-16T08:45:38.487Z,99388.38
2019-03-16T08:48:07.935Z,99386.30
2019-03-16T08:50:37.364Z,99391.36
2019-03-16T08:53:06.801Z,99396.06
2019-03-16T08:55:36.200Z,99389.70
2019-03-16T08:58:06.507Z,99385.27
2019-03-16T09:00:35.937Z,99393.58
2019-03-16T09:03:05.386Z,99398.05
2019-03-16T09:05:34.769Z,99392.31
2019-03-16T09:08:04.121Z,99390.63
2019-03-16T09:10:33.729Z,99394.84
2019-03-16T09:13:04.045Z,99388.10
2019-03-16T09:15:33.454Z,99396.67
2019-03-16T09:18:02.830Z,99401.34
2019-03-16T09:20:32.227Z,99404.44
2019-03-16T09:23:01.715Z,99395.92
2019-03-16T09:25:32.009Z,99402.98
2019-03-16T09:28:01.430Z,99400.83
2019-03-16T09:30:30.771Z,99402.41
2019-03-16T09:33:00.155Z,99410.68
2019-03-16T09:35:29.781Z,99411.41
2019-03-16T09:37:59.142Z,99413.83
2019-03-16T09:40:28.708Z,99411.06
2019-03-16T09:42:58.075Z,99418.80
2019-03-16T09:45:27.449Z,99415.34
2019-03-16T09:47:56.857Z,99418.06
2019-03-16T09:50:26.330Z,99422.05
2019-03-16T09:52:55.671Z,99425.91
2019-03-16T09:55:25.035Z,99420.70
2019-03-16T09:57:54.375Z,99423.88
2019-03-16T10:00:23.907Z,99417.50
2019-03-16T10:02:53.407Z,99425.34
2019-03-16T10:05:22.833Z,99422.30
2019-03-16T10:07:52.374Z,99423.03
2019-03-16T10:10:21.726Z,99426.95
2019-03-16T10:12:51.071Z,99423.72
2019-03-16T10:15:20.443Z,99429.05
2019-03-16T10:17:49.932Z,99428.13
2019-03-16T10:20:19.275Z,99428.77
2019-03-16T10:22:48.683Z,99431.68
2019-03-16T10:25:18.110Z,99432.16
2019-03-16T10:27:47.460Z,99424.52
2019-03-16T10:30:16.877Z,99440.77
2019-03-16T10:32:46.211Z,99437.22
2019-03-16T10:35:15.587Z,99431.70
2019-03-16T10:37:44.947Z,99435.93
2019-03-16T10:40:14.530Z,99443.45
2019-03-16T10:42:44.030Z,99440.96
2019-03-16T10:45:13.501Z,99444.13
2019-03-16T10:47:43.011Z,99444.46
2019-03-16T10:50:12.583Z,99442.50
2019-03-16T10:52:42.063Z,99453.62
2019-03-16T10:55:11.594Z,99454.53
2019-03-16T10:57:41.129Z,99452.93
2019-03-16T11:00:10.994Z,99459.00
2019-03-16T11:02:40.400Z,99455.17
2019-03-16T11:05:09.723Z,99455.02
2019-03-16T11:07:39.094Z,99457.06
2019-03-16T11:10:08.603Z,99464.03
2019-03-16T11:12:37.996Z,99461.66
2019-03-16T11:15:07.909Z,99466.75
2019-03-16T11:17:37.376Z,99474.05
2019-03-16T11:20:07.347Z,99468.88
2019-03-16T11:22:36.766Z,99466.84
2019-03-16T11:25:06.496Z,99476.73
2019-03-16T11:27:35.869Z,99475.62
2019-03-16T11:30:05.721Z,99474.99
2019-03-16T11:32:35.150Z,99474.53
2019-03-16T11:35:04.826Z,99474.70
2019-03-16T11:37:34.286Z,99472.47
2019-03-16T11:40:03.648Z,99478.53
2019-03-16T11:42:32.983Z,99472.09
2019-03-16T11:45:02.358Z,99479.27
2019-03-16T11:47:31.879Z,99486.14
2019-03-16T11:50:01.279Z,99480.76
2019-03-16T11:52:30.718Z,99483.53
2019-03-16T11:55:00.172Z,99482.50
2019-03-16T11:57:29.812Z,99485.39
2019-03-16T11:59:59.370Z,99484.45
2019-03-16T12:02:28.907Z,99482.28
2019-03-16T12:04:58.290Z,99482.27
2019-03-16T12:07:27.723Z,99485.66
2019-03-16T12:09:57.155Z,99485.96
2019-03-16T12:12:26.572Z,99487.27
2019-03-16T12:14:56.072Z,99479.86
2019-03-16T12:17:25.462Z,99473.98
2019-03-16T12:19:54.834Z,99469.55
2019-03-16T12:22:24.289Z,99476.72
2019-03-16T12:24:53.725Z,99477.57
2019-03-16T12:27:23.063Z,99478.11
2019-03-16T12:29:54.039Z,99469.38
2019-03-16T12:32:23.501Z,99470.71
2019-03-16T12:34:53.197Z,99478.17
2019-03-16T12:37:22.975Z,99479.05
2019-03-16T12:39:52.387Z,99476.49
2019-03-16T12:42:21.766Z,99479.56
2019-03-16T12:44:51.165Z,99483.81
2019-03-16T12:47:20.492Z,99482.83
2019-03-16T12:49:49.910Z,99478.45
2019-03-16T12:52:19.351Z,99484.39
2019-03-16T12:54:48.796Z,99476.96
2019-03-16T12:57:18.261Z,99482.28
2019-03-16T12:59:47.635Z,99482.82
2019-03-16T13:02:16.981Z,99488.30
2019-03-16T13:04:46.361Z,99489.02
2019-03-16T13:07:15.785Z,99492.16
2019-03-16T13:09:45.175Z,99491.27
2019-03-16T13:12:14.777Z,99483.89
2019-03-16T13:14:47.552Z,99487.86
2019-03-16T13:17:17.067Z,99485.86
2019-03-16T13:19:46.426Z,99494.53
2019-03-16T13:22:15.943Z,99491.04
2019-03-16T13:24:45.402Z,99492.67
2019-03-16T13:27:14.753Z,99491.57
2019-03-16T13:29:44.125Z,99496.45
2019-03-16T13:32:13.569Z,99496.77
2019-03-16T13:34:43.092Z,99501.01
2019-03-16T13:37:12.500Z,99499.47
2019-03-16T13:39:41.825Z,99506.28
2019-03-16T13:42:11.184Z,99494.96
2019-03-16T13:44:40.567Z,99500.75
2019-03-16T13:47:10.036Z,99506.34
2019-03-16T13:49:39.491Z,99503.13
2019-03-16T13:52:08.929Z,99507.11
2019-03-16T13:54:38.562Z,99504.44
2019-03-16T13:57:07.943Z,99503.66
2019-03-16T13:59:37.462Z,99503.28
2019-03-16T14:02:06.842Z,99508.41
2019-03-16T14:04:36.601Z,99508.41
2019-03-16T14:07:06.103Z,99506.19
2019-03-16T14:09:35.651Z,99506.80
2019-03-16T14:12:05.375Z,99502.82
2019-03-16T14:14:34.777Z,99504.98
2019-03-16T14:17:04.218Z,99505.23
2019-03-16T14:19:33.687Z,99504.84
2019-03-16T14:22:03.181Z,99506.48
2019-03-16T14:24:32.554Z,99511.58
2019-03-16T14:27:02.281Z,99517.55
2019-03-16T14:29:31.753Z,99507.22
2019-03-16T14:32:01.120Z,99505.17
2019-03-16T14:34:30.948Z,99508.63
2019-03-16T14:37:00.363Z,99504.73
2019-03-16T14:39:29.741Z,99512.22
2019-03-16T14:41:59.124Z,99511.17
2019-03-16T14:44:28.632Z,99510.54
2019-03-16T14:46:57.968Z,99510.54
2019-03-16T14:49:27.459Z,99509.41
2019-03-16T14:51:56.860Z,99511.48
2019-03-16T14:54:26.228Z,99512.69
2019-03-16T14:56:55.608Z,99512.69
2019-03-16T14:59:25.013Z,99508.70
2019-03-16T15:01:54.487Z,99509.17
2019-03-16T15:04:23.837Z,99517.50
2019-03-16T15:06:53.230Z,99513.45
2019-03-16T15:09:22.616Z,99517.42
2019-03-16T15:11:52.166Z,99518.83
2019-03-16T15:14:22.280Z,99536.64
2019-03-16T15:16:51.743Z,99517.28
2019-03-16T15:19:21.137Z,99520.27
2019-03-16T15:21:50.590Z,99518.66
2019-03-16T15:24:20.064Z,99519.22
2019-03-16T15:26:49.445Z,99515.70
2019-03-16T15:29:18.854Z,99515.06
2019-03-16T15:31:48.274Z,99514.46
2019-03-16T15:34:17.632Z,99519.66
2019-03-16T15:36:47.008Z,99512.32
2019-03-16T15:39:16.915Z,99521.34
2019-03-16T15:41:46.429Z,99519.98
2019-03-16T15:44:15.861Z,99515.63
2019-03-16T15:46:45.216Z,99516.15
2019-03-16T15:49:14.699Z,99512.70
2019-03-16T15:51:44.173Z,99517.91
2019-03-16T15:54:13.582Z,99517.38
2019-03-16T15:56:42.989Z,99515.31
2019-03-16T15:59:12.381Z,99514.08
2019-03-16T16:01:41.831Z,99515.38
2019-03-16T16:04:11.214Z,99519.80
2019-03-16T16:06:40.631Z,99514.60
2019-03-16T16:09:09.983Z,99520.74
2019-03-16T16:11:39.341Z,99523.70
2019-03-16T16:14:08.704Z,99520.28
2019-03-16T16:16:38.240Z,99525.16
2019-03-16T16:19:07.645Z,99518.67
2019-03-16T16:21:37.023Z,99526.47
2019-03-16T16:24:06.391Z,99520.36
2019-03-16T16:26:35.800Z,99523.55
2019-03-16T16:29:05.307Z,99520.95
2019-03-16T16:31:35.018Z,99524.00
2019-03-16T16:34:04.413Z,99521.86
2019-03-16T16:36:33.795Z,99523.62
2019-03-16T16:39:04.075Z,99520.11
2019-03-16T16:41:33.662Z,99528.67
2019-03-16T16:44:03.087Z,99524.70
2019-03-16T16:46:32.550Z,99525.94
2019-03-16T16:49:01.904Z,99526.40
2019-03-16T16:51:31.314Z,99533.28
2019-03-16T16:54:00.670Z,99536.34
2019-03-16T16:56:30.132Z,99537.86
2019-03-16T16:58:59.529Z,99541.23
2019-03-16T17:01:29.769Z,99540.91
2019-03-16T17:03:59.261Z,99538.31
2019-03-16T17:06:28.668Z,99534.87
2019-03-16T17:08:58.055Z,99543.19
2019-03-16T17:11:27.933Z,99541.43
2019-03-16T17:13:57.479Z,99539.67
2019-03-16T17:16:26.898Z,99535.78
2019-03-16T17:18:56.375Z,99541.36
2019-03-16T17:21:25.802Z,99536.55
2019-03-16T17:23:55.147Z,99536.09
2019-03-16T17:26:24.524Z,99534.80
2019-03-16T17:28:54.137Z,99528.37
2019-03-16T17:31:26.653Z,99533.50
2019-03-16T17:33:56.484Z,99533.95
2019-03-16T17:36:25.891Z,99527.00
2019-03-16T17:38:55.419Z,99528.89
2019-03-16T17:41:25.029Z,99534.58
2019-03-16T17:43:54.572Z,99539.00
2019-03-16T17:46:23.987Z,99530.44
2019-03-16T17:48:53.347Z,99532.44
2019-03-16T17:51:22.724Z,99537.63
2019-03-16T17:53:52.171Z,99541.08
2019-03-16T17:56:22.188Z,99539.46
2019-03-16T17:58:52.001Z,99540.83
2019-03-16T18:01:21.858Z,99538.85
2019-03-16T18:03:51.306Z,99544.41
2019-03-16T18:06:20.651Z,99542.19
2019-03-16T18:08:50.092Z,99541.22
2019-03-16T18:11:19.806Z,99539.70
2019-03-16T18:13:49.198Z,99547.39
2019-03-16T18:16:18.564Z,99546.55
2019-03-16T18:18:47.947Z,99550.91
2019-03-16T18:21:17.324Z,99552.59
2019-03-16T18:23:46.860Z,99549.08
2019-03-16T18:26:16.237Z,99547.33
2019-03-16T18:28:45.569Z,99546.09
2019-03-16T18:31:14.932Z,99544.80
2019-03-16T18:33:44.321Z,99548.55
2019-03-16T18:36:13.669Z,99550.98
2019-03-16T18:38:43.179Z,99555.83
2019-03-16T18:41:12.528Z,99551.09
2019-03-16T18:43:41.906Z,99548.03
2019-03-16T18:46:11.323Z,99550.17
2019-03-16T18:48:40.701Z,99554.59
2019-03-16T18:51:10.120Z,99557.65
2019-03-16T18:53:39.592Z,99557.58
2019-03-16T18:56:09.048Z,99554.53
2019-03-16T18:58:38.401Z,99555.73
2019-03-16T19:01:08.567Z,99550.00
2019-03-16T19:03:38.100Z,99550.98
2019-03-16T19:06:07.541Z,99553.58
2019-03-16T19:08:36.896Z,99554.53
2019-03-16T19:11:06.448Z,99552.28
2019-03-16T19:13:35.855Z,99551.76
2019-03-16T19:16:05.190Z,99545.27
2019-03-16T19:18:34.807Z,99550.92
2019-03-16T19:21:04.488Z,99546.28
2019-03-16T19:23:34.197Z,99551.23
2019-03-16T19:26:03.541Z,99546.11
2019-03-16T19:28:33.187Z,99547.86
2019-03-16T19:31:02.691Z,99546.04
2019-03-16T19:33:32.061Z,99549.70
2019-03-16T19:36:01.412Z,99551.45
2019-03-16T19:38:30.795Z,99548.85
2019-03-16T19:41:00.193Z,99549.02
2019-03-16T19:43:29.875Z,99550.46
2019-03-16T19:46:00.697Z,99546.28
2019-03-16T19:48:30.161Z,99553.58
2019-03-16T19:50:59.524Z,99559.34
2019-03-16T19:53:28.888Z,99551.16
2019-03-16T19:55:58.318Z,99561.09
2019-03-16T19:58:27.648Z,99556.57
2019-03-16T20:00:57.037Z,99560.56
2019-03-16T20:03:26.386Z,99563.45
2019-03-16T20:05:55.755Z,99563.31
2019-03-16T20:08:25.136Z,99565.08
2019-03-16T20:11:05.923Z,99564.23
2019-03-16T20:13:25.562Z,99569.75
2019-03-16T20:15:55.345Z,99571.11
2019-03-16T20:18:24.882Z,99571.11
2019-03-16T20:20:54.218Z,99568.97
2019-03-16T20:23:23.613Z,99566.14
2019-03-16T20:25:53.036Z,99572.63
2019-03-16T20:28:22.469Z,99568.67
2019-03-16T20:30:51.833Z,99568.14
2019-03-16T20:33:21.241Z,99579.38
2019-03-16T20:35:50.705Z,99582.37
2019-03-16T20:38:20.280Z,99546.65
2019-03-16T20:40:50.555Z,99574.86
2019-03-16T20:43:20.108Z,99579.92
2019-03-16T20:45:49.736Z,99577.39
2019-03-16T20:48:19.051Z,99571.34
2019-03-16T20:50:48.647Z,99580.06
2019-03-16T20:53:18.129Z,99584.80
2019-03-16T20:55:47.497Z,99582.20
2019-03-16T20:58:16.879Z,99573.03
2019-03-16T21:00:46.379Z,99582.06
2019-03-16T21:03:16.624Z,99577.84
2019-03-16T21:05:46.015Z,99575.95
2019-03-16T21:08:15.363Z,99580.21
2019-03-16T21:10:44.727Z,99579.99
2019-03-16T21:13:14.212Z,99579.92
2019-03-16T21:15:46.576Z,99582.81
2019-03-16T21:18:16.142Z,99578.55
2019-03-16T21:20:45.540Z,99581.51
2019-03-16T21:23:14.872Z,99577.25
2019-03-16T21:25:44.360Z,99574.72
2019-03-16T21:28:15.892Z,99575.85
2019-03-16T21:30:44.977Z,99578.00
2019-03-16T21:33:14.324Z,99574.48
2019-03-16T21:35:43.673Z,99573.35
2019-03-16T21:38:13.021Z,99577.61
2019-03-16T21:40:42.426Z,99574.27
2019-03-16T21:43:11.854Z,99575.50
2019-03-16T21:45:41.220Z,99576.80
2019-03-16T21:48:10.596Z,99576.48
2019-03-16T21:50:39.978Z,99573.49
2019-03-16T21:53:09.392Z,99575.70
2019-03-16T21:55:38.739Z,99575.70
2019-03-16T21:58:09.349Z,99576.62
2019-03-16T22:00:39.171Z,99580.38
2019-03-16T22:03:08.758Z,99583.44
2019-03-16T22:05:38.215Z,99576.33
2019-03-16T22:08:07.720Z,99582.44
2019-03-16T22:10:37.170Z,99582.37
2019-03-16T22:13:06.607Z,99588.09
2019-03-16T22:15:36.018Z,99585.11
2019-03-16T22:18:05.369Z,99587.39
2019-03-16T22:20:34.717Z,99586.93
2019-03-16T22:23:06.228Z,99585.63
2019-03-16T22:25:35.247Z,99589.70
2019-03-16T22:28:04.803Z,99590.16
2019-03-16T22:30:34.367Z,99589.70
2019-03-16T22:33:03.706Z,99592.36
2019-03-16T22:35:33.301Z,99591.20
2019-03-16T22:38:02.654Z,99593.73
2019-03-16T22:40:32.296Z,99588.98
2019-03-16T22:43:01.793Z,99589.83
2019-03-16T22:45:31.140Z,99589.52
2019-03-16T22:48:00.505Z,99595.27
2019-03-16T22:50:30.200Z,99592.28
2019-03-16T22:52:59.577Z,99599.00
2019-03-16T22:55:28.939Z,99597.24
2019-03-16T22:57:58.370Z,99599.55
2019-03-16T23:00:37.009Z,99603.91
2019-03-16T23:03:05.600Z,99602.97
2019-03-16T23:05:34.940Z,99610.30
2019-03-16T23:08:04.297Z,99609.00
2019-03-16T23:10:33.816Z,99611.15
2019-03-16T23:13:03.155Z,99512.78
2019-03-16T23:15:32.476Z,99608.48
2019-03-16T23:18:01.947Z,99609.45
2019-03-16T23:20:31.453Z,99610.23
2019-03-16T23:23:00.798Z,99617.25
2019-03-16T23:25:30.250Z,99613.07
2019-03-16T23:27:59.574Z,99614.44
2019-03-16T23:30:29.023Z,99609.23
2019-03-16T23:32:58.426Z,99613.13
2019-03-16T23:35:27.728Z,99609.63
2019-03-16T23:37:57.123Z,99615.28
2019-03-16T23:40:26.752Z,99606.95
2019-03-16T23:42:56.186Z,99609.95
2019-03-16T23:45:25.551Z,99609.95
2019-03-16T23:47:54.969Z,99619.95
2019-03-16T23:50:24.388Z,99616.58
2019-03-16T23:52:53.741Z,99615.67
2019-03-16T23:55:23.117Z,99617.74
2019-03-16T23:57:52.491Z,99625.22
